Time;durP1;ratioP1;P1;durP2;ratioP2;P2;SDS_P1;SDS_P2;PMS_P1;PMS_P2;Temp;Humidity;BMP_temperature;BMP_pressure;BME280_temperature;BME280_humidity;BME280_pressure;Samples;Min_cycle;Max_cycle;Signal;HPM_P1;HPM_P2
2021/08/30 00:01:10;;;;;;;;;;;22.90;53.50;;;;;;1581290;73;662;-67
2021/08/30 00:03:12;;;;;;;;;;;22.90;53.50;;;;;;1579636;73;888;-68
2021/08/30 00:05:14;;;;;;;;;;;22.90;53.50;;;;;;1589141;73;1150;-67
2021/08/30 00:07:15;;;;;;;;;;;23.00;53.60;;;;;;1575390;73;702;-66
2021/08/30 00:09:17;;;;;;;;;;;22.90;53.60;;;;;;1581535;73;781;-66
2021/08/30 00:11:19;;;;;;;;;;;23.00;53.60;;;;;;1577855;73;739;-67
2021/08/30 00:13:21;;;;;;;;;;;22.90;53.60;;;;;;1584345;73;743;-66
2021/08/30 00:15:23;;;;;;;;;;;22.90;53.60;;;;;;1581438;73;1144;-66
2021/08/30 00:17:25;;;;;;;;;;;22.90;53.60;;;;;;1579435;73;785;-66
2021/08/30 00:19:29;;;;;;;;;;;22.90;53.50;;;;;;1586664;73;813;-67
2021/08/30 00:21:30;;;;;;;;;;;22.90;53.40;;;;;;1585858;73;1931;-66
2021/08/30 00:23:32;;;;;;;;;;;23.00;53.50;;;;;;1575364;73;728;-66
2021/08/30 00:25:34;;;;;;;;;;;23.00;53.50;;;;;;1572083;73;1160;-66
2021/08/30 00:27:36;;;;;;;;;;;23.00;53.40;;;;;;1587539;73;699;-66
2021/08/30 00:29:38;;;;;;;;;;;22.90;53.40;;;;;;1575709;73;741;-66
2021/08/30 00:31:41;;;;;;;;;;;23.00;53.40;;;;;;1574971;73;740;-66
2021/08/30 00:33:43;;;;;;;;;;;23.00;53.40;;;;;;1587625;73;799;-66
2021/08/30 00:35:45;;;;;;;;;;;23.00;53.40;;;;;;1595001;73;1159;-67
2021/08/30 00:37:48;;;;;;;;;;;23.00;53.40;;;;;;1584378;74;927;-66
2021/08/30 00:39:50;;;;;;;;;;;23.00;53.40;;;;;;1584833;73;716;-70
2021/08/30 00:41:53;;;;;;;;;;;23.00;53.30;;;;;;1585314;73;1921;-67
2021/08/30 00:43:55;;;;;;;;;;;23.00;53.20;;;;;;1592008;73;915;-66
2021/08/30 00:45:58;;;;;;;;;;;23.00;53.30;;;;;;1583732;73;1191;-65
2021/08/30 00:48:01;;;;;;;;;;;23.00;53.20;;;;;;1580412;73;803;-69
2021/08/30 00:50:03;;;;;;;;;;;23.00;53.30;;;;;;1582700;73;727;-67
2021/08/30 00:52:05;;;;;;;;;;;23.00;53.20;;;;;;1578985;73;683;-67
2021/08/30 00:54:08;;;;;;;;;;;23.00;53.30;;;;;;1583526;73;730;-67
2021/08/30 00:56:10;;;;;;;;;;;22.90;53.20;;;;;;1575933;73;1184;-65
2021/08/30 00:58:12;;;;;;;;;;;23.00;53.20;;;;;;1571243;73;785;-66
2021/08/30 01:00:14;;;;;;;;;;;23.00;53.10;;;;;;1588882;73;781;-67
2021/08/30 01:02:16;;;;;;;;;;;23.00;53.10;;;;;;1579675;73;1924;-66
2021/08/30 01:04:18;;;;;;;;;;;23.00;53.10;;;;;;1591428;73;750;-68
2021/08/30 01:06:24;;;;;;;;;;;23.00;53.20;;;;;;1585017;73;1177;-67
2021/08/30 01:08:28;;;;;;;;;;;23.00;53.20;;;;;;1592719;73;658;-65
2021/08/30 01:10:31;;;;;;;;;;;23.00;53.10;;;;;;1589222;73;652;-67
2021/08/30 01:12:51;;;;;;;;;;;23.00;53.10;;;;;;1580031;73;1070;-65
2021/08/30 01:14:54;;;;;;;;;;;23.00;53.10;;;;;;1580124;73;1145;-66
2021/08/30 01:16:56;;;;;;;;;;;22.90;53.10;;;;;;1589298;73;702;-66
2021/08/30 01:18:59;;;;;;;;;;;22.90;53.10;;;;;;1576674;73;768;-65
2021/08/30 01:21:21;;;;;;;;;;;23.00;53.10;;;;;;1583468;73;657;-65
2021/08/30 01:23:23;;;;;;;;;;;23.00;53.10;;;;;;1578151;73;1928;-67
2021/08/30 01:25:25;;;;;;;;;;;22.90;53.10;;;;;;1580934;73;1177;-68
2021/08/30 01:27:27;;;;;;;;;;;23.00;53.10;;;;;;1592829;73;766;-66
2021/08/30 01:29:37;;;;;;;;;;;23.00;53.00;;;;;;1576447;73;805;-67
2021/08/30 01:31:46;;;;;;;;;;;23.00;53.00;;;;;;1595186;73;720;-66
2021/08/30 01:33:49;;;;;;;;;;;22.90;53.00;;;;;;1580145;73;1004;-66
2021/08/30 01:35:51;;;;;;;;;;;23.00;52.90;;;;;;1566938;71;2039;-68
2021/08/30 01:37:56;;;;;;;;;;;22.90;53.00;;;;;;1577209;74;779;-68
2021/08/30 01:39:58;;;;;;;;;;;22.90;52.90;;;;;;1576624;74;791;-67
2021/08/30 01:42:00;;;;;;;;;;;23.00;52.90;;;;;;1577445;74;1948;-65
2021/08/30 01:44:02;;;;;;;;;;;23.00;52.80;;;;;;1541056;76;771;-67
2021/08/30 01:46:04;;;;;;;;;;;23.00;52.80;;;;;;1571805;74;1153;-69
2021/08/30 01:48:06;;;;;;;;;;;22.90;52.90;;;;;;1570499;74;759;-68
2021/08/30 01:50:08;;;;;;;;;;;23.00;52.90;;;;;;1576016;74;798;-68
2021/08/30 01:52:10;;;;;;;;;;;23.00;52.90;;;;;;1579873;74;665;-68
2021/08/30 01:54:12;;;;;;;;;;;23.00;52.90;;;;;;1574294;74;935;-68
2021/08/30 01:56:14;;;;;;;;;;;22.90;52.80;;;;;;1567668;74;1163;-69
2021/08/30 02:02:40;;;;;;;;;;;22.90;52.80;;;;;;1568757;74;1891;-68
2021/08/30 02:04:42;;;;;;;;;;;22.90;52.80;;;;;;1566768;74;729;-68
2021/08/30 02:06:44;;;;;;;;;;;22.90;52.80;;;;;;1566970;74;1152;-69
2021/08/30 02:08:46;;;;;;;;;;;22.90;52.70;;;;;;1575805;74;746;-71
2021/08/30 02:10:48;;;;;;;;;;;22.90;52.70;;;;;;1573986;74;764;-68
2021/08/30 02:12:49;;;;;;;;;;;23.00;52.70;;;;;;1574753;74;867;-68
2021/08/30 02:14:51;;;;;;;;;;;22.90;52.60;;;;;;1565033;74;809;-68
2021/08/30 02:16:53;;;;;;;;;;;22.90;52.60;;;;;;1556681;74;1166;-68
2021/08/30 02:18:57;;;;;;;;;;;23.00;52.60;;;;;;1571876;74;688;-69
2021/08/30 02:21:10;;;;;;;;;;;22.90;52.60;;;;;;1572609;74;1009;-68
2021/08/30 02:23:12;;;;;;;;;;;22.90;52.70;;;;;;1569489;74;1910;-68
2021/08/30 02:25:15;;;;;;;;;;;22.90;52.80;;;;;;1569735;74;1121;-68
2021/08/30 02:27:18;;;;;;;;;;;23.00;52.80;;;;;;1579238;74;783;-66
2021/08/30 02:29:23;;;;;;;;;;;23.00;52.80;;;;;;1572900;74;771;-68
2021/08/30 02:31:25;;;;;;;;;;;22.90;52.80;;;;;;1578467;74;909;-68
2021/08/30 02:33:27;;;;;;;;;;;23.00;52.70;;;;;;1577072;74;767;-70
2021/08/30 02:35:30;;;;;;;;;;;23.10;52.90;;;;;;1577795;73;1170;-68
2021/08/30 02:37:32;;;;;;;;;;;22.90;52.80;;;;;;1579870;74;803;-68
2021/08/30 02:39:34;;;;;;;;;;;22.90;52.70;;;;;;1571598;74;922;-68
2021/08/30 02:41:36;;;;;;;;;;;22.90;52.70;;;;;;1570523;74;787;-64
2021/08/30 02:43:38;;;;;;;;;;;23.00;52.70;;;;;;1568690;74;1931;-68
2021/08/30 02:45:40;;;;;;;;;;;22.90;52.70;;;;;;1568073;74;1151;-68
2021/08/30 02:47:42;;;;;;;;;;;23.00;52.70;;;;;;1569580;74;727;-69
2021/08/30 02:49:44;;;;;;;;;;;23.00;52.70;;;;;;1577757;74;761;-69
2021/08/30 02:51:47;;;;;;;;;;;23.00;52.60;;;;;;1570433;74;668;-67
2021/08/30 02:53:49;;;;;;;;;;;23.00;52.60;;;;;;1572067;74;808;-73
2021/08/30 02:55:51;;;;;;;;;;;23.00;52.70;;;;;;1568726;74;1178;-73
2021/08/30 02:57:53;;;;;;;;;;;23.10;52.70;;;;;;1565142;74;806;-75
2021/08/30 02:59:54;;;;;;;;;;;23.00;52.50;;;;;;1570086;74;730;-69
2021/08/30 03:01:56;;;;;;;;;;;23.00;52.40;;;;;;1569193;74;741;-73
2021/08/30 03:03:58;;;;;;;;;;;23.00;52.40;;;;;;1567340;74;1950;-73
2021/08/30 03:06:00;;;;;;;;;;;23.00;52.30;;;;;;1561888;74;1144;-73
2021/08/30 03:08:02;;;;;;;;;;;23.00;52.30;;;;;;1562343;74;729;-73
2021/08/30 03:10:05;;;;;;;;;;;23.00;52.30;;;;;;1569925;74;653;-74
2021/08/30 03:12:07;;;;;;;;;;;23.00;52.30;;;;;;1569475;74;696;-74
2021/08/30 03:14:09;;;;;;;;;;;22.90;52.30;;;;;;1574660;74;870;-73
2021/08/30 03:16:11;;;;;;;;;;;22.90;52.30;;;;;;1540269;76;1094;-75
2021/08/30 03:18:13;;;;;;;;;;;23.00;52.30;;;;;;1566653;74;785;-74
2021/08/30 03:20:22;;;;;;;;;;;22.90;52.30;;;;;;1575326;74;699;-75
2021/08/30 03:22:25;;;;;;;;;;;23.00;52.30;;;;;;1569664;74;1954;-75
2021/08/30 03:24:27;;;;;;;;;;;23.00;52.30;;;;;;1585858;74;766;-75
2021/08/30 03:26:29;;;;;;;;;;;22.90;52.30;;;;;;1584357;74;1078;-75
2021/08/30 03:28:31;;;;;;;;;;;22.90;52.30;;;;;;1585098;74;762;-77
2021/08/30 03:30:32;;;;;;;;;;;22.90;52.30;;;;;;1572359;74;796;-75
2021/08/30 03:32:34;;;;;;;;;;;22.90;52.30;;;;;;1572519;74;720;-75
2021/08/30 03:34:36;;;;;;;;;;;22.90;52.30;;;;;;1582686;74;774;-72
2021/08/30 03:36:38;;;;;;;;;;;22.90;52.30;;;;;;1584436;73;1107;-74
2021/08/30 03:38:40;;;;;;;;;;;22.90;52.30;;;;;;1579828;74;789;-74
2021/08/30 03:40:42;;;;;;;;;;;22.90;52.30;;;;;;1583839;74;779;-74
2021/08/30 03:42:44;;;;;;;;;;;22.90;52.30;;;;;;1578065;74;1913;-74
2021/08/30 03:44:46;;;;;;;;;;;22.90;52.30;;;;;;1572556;74;822;-74
2021/08/30 03:46:48;;;;;;;;;;;22.90;52.20;;;;;;1551571;74;1090;-74
2021/08/30 03:48:50;;;;;;;;;;;22.90;52.30;;;;;;1564308;74;677;-74
2021/08/30 03:50:53;;;;;;;;;;;22.90;52.20;;;;;;1569461;74;754;-74
2021/08/30 03:52:54;;;;;;;;;;;22.90;52.20;;;;;;1574116;74;812;-74
2021/08/30 03:54:56;;;;;;;;;;;22.90;52.30;;;;;;1582843;74;775;-73
2021/08/30 03:56:58;;;;;;;;;;;22.90;52.40;;;;;;1576363;74;776;-75
2021/08/30 03:59:01;;;;;;;;;;;22.90;52.50;;;;;;1560461;74;741;-76
2021/08/30 04:01:04;;;;;;;;;;;22.90;52.40;;;;;;1569042;74;725;-76
2021/08/30 04:03:06;;;;;;;;;;;22.90;52.30;;;;;;1573085;74;1921;-74
2021/08/30 04:05:08;;;;;;;;;;;22.90;52.30;;;;;;1565606;74;1164;-73
2021/08/30 04:07:10;;;;;;;;;;;22.80;52.20;;;;;;1560237;74;750;-74
2021/08/30 04:09:19;;;;;;;;;;;22.80;52.20;;;;;;1566723;74;737;-74
2021/08/30 04:11:16;;;;;;;;;;;22.80;52.20;;;;;;1564829;74;1668;-72
2021/08/30 04:13:18;;;;;;;;;;;22.80;52.20;;;;;;1566483;74;737;-74
2021/08/30 04:15:20;;;;;;;;;;;22.80;52.30;;;;;;1577379;74;1145;-74
2021/08/30 04:17:22;;;;;;;;;;;22.80;52.30;;;;;;1574232;74;744;-75
2021/08/30 04:19:23;;;;;;;;;;;22.80;52.30;;;;;;1570299;74;787;-75
2021/08/30 04:21:25;;;;;;;;;;;22.80;52.30;;;;;;1576868;74;794;-74
2021/08/30 04:23:27;;;;;;;;;;;22.80;52.30;;;;;;1564974;74;1931;-71
2021/08/30 04:25:29;;;;;;;;;;;22.80;52.30;;;;;;1577937;74;1137;-76
2021/08/30 04:27:31;;;;;;;;;;;22.70;52.30;;;;;;1567390;74;669;-75
2021/08/30 04:29:34;;;;;;;;;;;22.70;52.40;;;;;;1580059;74;738;-74
2021/08/30 04:31:36;;;;;;;;;;;22.70;52.40;;;;;;1573629;74;754;-71
2021/08/30 04:33:38;;;;;;;;;;;22.70;52.50;;;;;;1573352;74;777;-72
2021/08/30 04:35:40;;;;;;;;;;;22.70;52.50;;;;;;1574573;74;1121;-72
2021/08/30 04:37:42;;;;;;;;;;;22.70;52.50;;;;;;1577432;74;839;-72
2021/08/30 04:39:44;;;;;;;;;;;22.80;52.60;;;;;;1576189;74;659;-73
2021/08/30 04:41:45;;;;;;;;;;;22.80;52.60;;;;;;1581312;74;646;-71
2021/08/30 04:43:47;;;;;;;;;;;22.70;52.60;;;;;;1569852;74;1943;-73
2021/08/30 04:45:49;;;;;;;;;;;22.70;52.60;;;;;;1563324;74;1200;-74
2021/08/30 04:47:51;;;;;;;;;;;22.70;52.60;;;;;;1566875;74;731;-74
2021/08/30 04:49:53;;;;;;;;;;;22.70;52.60;;;;;;1568745;74;643;-70
2021/08/30 04:51:55;;;;;;;;;;;22.80;52.60;;;;;;1562189;74;793;-72
2021/08/30 04:53:57;;;;;;;;;;;22.70;52.60;;;;;;1566050;74;766;-73
2021/08/30 04:55:59;;;;;;;;;;;22.80;52.60;;;;;;1554497;74;1161;-74
2021/08/30 04:58:02;;;;;;;;;;;22.80;52.60;;;;;;1580064;74;718;-72
2021/08/30 05:00:07;;;;;;;;;;;22.80;52.50;;;;;;1580125;74;793;-72
2021/08/30 05:02:09;;;;;;;;;;;22.80;52.60;;;;;;1571343;74;726;-71
2021/08/30 05:04:11;;;;;;;;;;;22.70;52.70;;;;;;1564224;74;1942;-72
2021/08/30 05:06:13;;;;;;;;;;;22.80;52.70;;;;;;1578694;74;1086;-72
2021/08/30 05:08:15;;;;;;;;;;;22.70;52.60;;;;;;1583798;74;603;-71
2021/08/30 05:10:17;;;;;;;;;;;22.70;52.60;;;;;;1572980;74;680;-72
2021/08/30 05:12:21;;;;;;;;;;;22.70;52.70;;;;;;1577554;74;737;-73
2021/08/30 05:14:22;;;;;;;;;;;22.70;52.80;;;;;;1580101;74;1796;-72
2021/08/30 05:16:24;;;;;;;;;;;22.70;52.70;;;;;;1578128;74;1149;-64
2021/08/30 05:18:26;;;;;;;;;;;22.80;52.70;;;;;;1574914;74;760;-67
2021/08/30 05:20:28;;;;;;;;;;;22.80;52.60;;;;;;1572214;74;797;-69
2021/08/30 05:22:30;;;;;;;;;;;22.80;52.70;;;;;;1563253;74;783;-68
2021/08/30 05:24:32;;;;;;;;;;;22.70;52.60;;;;;;1568719;74;1946;-66
2021/08/30 05:26:34;;;;;;;;;;;22.70;52.60;;;;;;1576176;74;1130;-66
2021/08/30 05:28:37;;;;;;;;;;;22.80;52.60;;;;;;1565533;74;759;-66
2021/08/30 05:30:39;;;;;;;;;;;22.70;52.60;;;;;;1580260;74;790;-66
2021/08/30 05:32:41;;;;;;;;;;;22.70;52.60;;;;;;1565168;74;729;-66
2021/08/30 05:34:43;;;;;;;;;;;22.70;52.60;;;;;;1569775;74;763;-66
2021/08/30 05:36:44;;;;;;;;;;;22.80;52.60;;;;;;1578955;74;1124;-68
2021/08/30 05:38:46;;;;;;;;;;;22.80;52.60;;;;;;1571652;74;830;-67
2021/08/30 05:40:48;;;;;;;;;;;22.70;52.50;;;;;;1570327;74;691;-66
2021/08/30 05:42:50;;;;;;;;;;;22.70;52.50;;;;;;1571347;74;777;-66
2021/08/30 05:44:52;;;;;;;;;;;22.70;52.50;;;;;;1569725;74;1926;-66
2021/08/30 05:46:54;;;;;;;;;;;22.70;52.50;;;;;;1575909;74;1145;-65
2021/08/30 05:48:56;;;;;;;;;;;22.80;52.50;;;;;;1575985;74;827;-67
2021/08/30 05:50:58;;;;;;;;;;;22.70;52.50;;;;;;1549417;74;790;-68
2021/08/30 05:52:59;;;;;;;;;;;22.70;52.40;;;;;;1556161;74;902;-68
2021/08/30 05:55:01;;;;;;;;;;;22.70;52.50;;;;;;1560046;74;1151;-66
2021/08/30 05:57:03;;;;;;;;;;;22.70;52.40;;;;;;1563392;74;648;-66
2021/08/30 05:59:05;;;;;;;;;;;22.70;52.50;;;;;;1576428;74;738;-66
2021/08/30 06:01:07;;;;;;;;;;;22.70;52.50;;;;;;1575075;74;816;-65
2021/08/30 06:03:09;;;;;;;;;;;22.80;52.40;;;;;;1564167;74;779;-66
2021/08/30 06:05:11;;;;;;;;;;;22.70;52.40;;;;;;1583740;74;1952;-65
2021/08/30 06:07:13;;;;;;;;;;;22.70;52.40;;;;;;1567522;74;813;-66
2021/08/30 06:09:15;;;;;;;;;;;22.70;52.40;;;;;;1570892;74;692;-67
2021/08/30 06:11:17;;;;;;;;;;;22.60;52.30;;;;;;1569885;74;750;-65
2021/08/30 06:13:19;;;;;;;;;;;22.70;52.40;;;;;;1563809;74;743;-65
2021/08/30 06:15:21;;;;;;;;;;;22.60;52.30;;;;;;1565034;74;1101;-65
2021/08/30 06:17:23;;;;;;;;;;;22.60;52.30;;;;;;1577351;74;797;-62
2021/08/30 06:19:25;;;;;;;;;;;22.70;52.40;;;;;;1570799;74;796;-65
2021/08/30 06:21:26;;;;;;;;;;;22.60;52.30;;;;;;1573384;74;733;-66
2021/08/30 06:23:30;;;;;;;;;;;22.70;52.30;;;;;;1570644;74;897;-65
2021/08/30 06:25:32;;;;;;;;;;;22.80;52.30;;;;;;1568249;74;1143;-65
2021/08/30 06:27:35;;;;;;;;;;;22.80;52.30;;;;;;1575762;74;769;-65
2021/08/30 06:29:37;;;;;;;;;;;22.70;52.30;;;;;;1568927;74;663;-65
2021/08/30 06:31:38;;;;;;;;;;;22.70;52.30;;;;;;1568060;74;879;-68
2021/08/30 06:33:40;;;;;;;;;;;22.70;52.30;;;;;;1570093;74;753;-68
2021/08/30 06:35:43;;;;;;;;;;;22.80;52.30;;;;;;1569416;74;1133;-68
2021/08/30 06:37:45;;;;;;;;;;;22.70;52.30;;;;;;1569494;74;782;-68
2021/08/30 06:39:46;;;;;;;;;;;22.70;52.30;;;;;;1572429;74;742;-67
2021/08/30 06:41:48;;;;;;;;;;;22.70;52.30;;;;;;1575802;74;798;-67
2021/08/30 06:43:50;;;;;;;;;;;22.70;52.30;;;;;;1574867;74;1935;-67
2021/08/30 06:45:52;;;;;;;;;;;22.70;52.30;;;;;;1567637;74;1158;-66
2021/08/30 06:47:54;;;;;;;;;;;22.70;52.30;;;;;;1572578;74;801;-67
2021/08/30 06:49:56;;;;;;;;;;;22.70;52.30;;;;;;1572116;74;679;-67
2021/08/30 06:51:58;;;;;;;;;;;22.60;52.20;;;;;;1574434;74;689;-67
2021/08/30 06:53:59;;;;;;;;;;;22.60;52.20;;;;;;1575834;74;740;-67
2021/08/30 06:56:01;;;;;;;;;;;22.70;52.30;;;;;;1574220;74;1123;-70
2021/08/30 06:58:03;;;;;;;;;;;22.70;52.30;;;;;;1568271;74;821;-67
2021/08/30 07:00:06;;;;;;;;;;;22.70;52.30;;;;;;1584956;74;786;-67
2021/08/30 07:02:07;;;;;;;;;;;22.60;52.20;;;;;;1573553;74;751;-68
2021/08/30 07:04:09;;;;;;;;;;;22.70;52.30;;;;;;1575653;74;1933;-68
2021/08/30 07:06:11;;;;;;;;;;;22.60;52.20;;;;;;1575735;74;1156;-67
2021/08/30 07:08:13;;;;;;;;;;;22.60;52.30;;;;;;1573801;74;769;-68
2021/08/30 07:10:15;;;;;;;;;;;22.60;52.20;;;;;;1570455;74;744;-70
2021/08/30 07:12:17;;;;;;;;;;;22.70;52.30;;;;;;1581221;74;790;-67
2021/08/30 07:14:19;;;;;;;;;;;22.80;52.30;;;;;;1580861;74;673;-67
2021/08/30 07:16:21;;;;;;;;;;;22.60;52.30;;;;;;1573730;74;1133;-67
2021/08/30 07:18:23;;;;;;;;;;;22.70;52.40;;;;;;1570950;74;843;-72
2021/08/30 07:20:25;;;;;;;;;;;22.60;52.30;;;;;;1567574;74;797;-71
2021/08/30 07:22:27;;;;;;;;;;;22.70;52.30;;;;;;1568910;74;901;-72
2021/08/30 07:24:28;;;;;;;;;;;22.80;52.40;;;;;;1572871;74;1934;-72
2021/08/30 07:26:30;;;;;;;;;;;22.70;52.50;;;;;;1568014;74;1148;-72
2021/08/30 07:28:32;;;;;;;;;;;22.70;52.50;;;;;;1571786;74;723;-72
2021/08/30 07:30:34;;;;;;;;;;;22.70;52.50;;;;;;1570755;74;764;-74
2021/08/30 07:32:36;;;;;;;;;;;22.70;52.60;;;;;;1577252;74;672;-73
2021/08/30 07:34:38;;;;;;;;;;;22.70;52.60;;;;;;1571930;74;762;-74
2021/08/30 07:36:40;;;;;;;;;;;22.70;52.60;;;;;;1589475;73;223026;-74
2021/08/30 07:38:42;;;;;;;;;;;22.70;52.70;;;;;;1591268;73;809;-73
2021/08/30 07:40:44;;;;;;;;;;;22.70;52.80;;;;;;1585753;73;1201;-72
2021/08/30 07:42:45;;;;;;;;;;;22.80;52.90;;;;;;1601382;73;736;-72
2021/08/30 07:44:47;;;;;;;;;;;22.80;52.90;;;;;;1585422;73;1934;-71
2021/08/30 07:46:49;;;;;;;;;;;22.70;52.80;;;;;;1580555;73;685;-72
2021/08/30 07:48:51;;;;;;;;;;;22.80;52.80;;;;;;1564868;72;221113;-59
2021/08/30 07:50:53;;;;;;;;;;;22.80;52.90;;;;;;1532710;76;723;-57
2021/08/30 07:52:55;;;;;;;;;;;22.80;52.80;;;;;;1534738;76;1229;-57
2021/08/30 07:54:57;;;;;;;;;;;22.90;53.10;;;;;;1526571;76;712;-58
2021/08/30 07:56:59;;;;;;;;;;;22.90;53.00;;;;;;1524092;76;735;-56
2021/08/30 07:59:00;;;;;;;;;;;22.90;52.90;;;;;;1525969;76;781;-59
2021/08/30 08:01:02;;;;;;;;;;;22.90;52.90;;;;;;1534666;76;726;-60
2021/08/30 08:03:04;;;;;;;;;;;23.00;52.80;;;;;;1531005;76;1174;-60
2021/08/30 08:05:06;;;;;;;;;;;22.90;52.90;;;;;;1524647;76;1943;-58
2021/08/30 08:07:08;;;;;;;;;;;22.90;52.80;;;;;;1535175;76;687;-59
2021/08/30 08:09:10;;;;;;;;;;;22.90;52.80;;;;;;1518477;76;671;-57
2021/08/30 08:11:12;;;;;;;;;;;22.90;52.80;;;;;;1523042;76;739;-58
2021/08/30 08:13:14;;;;;;;;;;;22.90;52.80;;;;;;1534624;76;1085;-58
2021/08/30 08:15:16;;;;;;;;;;;23.00;52.80;;;;;;1533344;76;809;-60
2021/08/30 08:17:18;;;;;;;;;;;22.90;52.70;;;;;;1534433;76;717;-61
2021/08/30 08:19:20;;;;;;;;;;;22.90;52.60;;;;;;1530989;76;837;-60
2021/08/30 08:21:22;;;;;;;;;;;23.00;52.60;;;;;;1528720;76;774;-60
2021/08/30 08:23:24;;;;;;;;;;;22.90;52.50;;;;;;1522591;76;1130;-59
2021/08/30 08:25:26;;;;;;;;;;;23.00;52.40;;;;;;1529828;76;1928;-59
2021/08/30 08:27:28;;;;;;;;;;;23.00;52.40;;;;;;1534162;76;773;-59
2021/08/30 08:29:29;;;;;;;;;;;22.90;52.40;;;;;;1523717;76;648;-59
2021/08/30 08:31:32;;;;;;;;;;;23.00;52.40;;;;;;1529773;76;710;-60
2021/08/30 08:33:34;;;;;;;;;;;23.00;52.30;;;;;;1533213;76;1128;-61
2021/08/30 08:35:40;;;;;;;;;;;22.90;52.50;;;;;;1525044;76;779;-58
2021/08/30 08:37:40;;;;;;;;;;;22.90;52.50;;;;;;1519004;76;1666;-57
2021/08/30 08:39:42;;;;;;;;;;;23.00;52.40;;;;;;1525342;76;732;-61
2021/08/30 08:41:43;;;;;;;;;;;22.90;52.40;;;;;;1534216;76;732;-61
2021/08/30 08:43:46;;;;;;;;;;;22.90;52.40;;;;;;1529269;76;1075;-59
2021/08/30 08:45:48;;;;;;;;;;;22.90;52.40;;;;;;1532407;76;1993;-61
2021/08/30 08:47:50;;;;;;;;;;;22.90;52.30;;;;;;1536918;76;799;-57
2021/08/30 08:49:52;;;;;;;;;;;23.00;52.30;;;;;;1529542;76;968;-59
2021/08/30 08:51:54;;;;;;;;;;;23.00;52.20;;;;;;1534542;76;741;-59
2021/08/30 08:53:56;;;;;;;;;;;23.00;52.10;;;;;;1532582;76;1134;-59
2021/08/30 08:55:58;;;;;;;;;;;23.00;52.10;;;;;;1535406;76;732;-60
2021/08/30 08:58:01;;;;;;;;;;;23.00;52.00;;;;;;1536992;76;807;-57
2021/08/30 09:00:05;;;;;;;;;;;23.00;52.00;;;;;;1532188;76;1580;-60
2021/08/30 09:02:07;;;;;;;;;;;22.90;52.10;;;;;;1531733;76;1816;-59
2021/08/30 09:04:10;;;;;;;;;;;22.90;52.10;;;;;;1535073;76;1179;-57
2021/08/30 09:06:12;;;;;;;;;;;22.90;52.10;;;;;;1524612;76;1928;-56
2021/08/30 09:08:31;;;;;;;;;;;22.90;52.10;;;;;;1538358;76;736;-56
2021/08/30 09:10:38;;;;;;;;;;;22.90;52.00;;;;;;1525986;76;775;-60
2021/08/30 09:12:36;;;;;;;;;;;22.80;52.00;;;;;;1526923;76;1468;-58
2021/08/30 09:14:38;;;;;;;;;;;22.80;52.00;;;;;;1529356;76;1098;-58
2021/08/30 09:16:40;;;;;;;;;;;22.90;52.20;;;;;;1532541;76;789;-61
2021/08/30 09:18:42;;;;;;;;;;;22.80;52.00;;;;;;1533948;76;813;-60
2021/08/30 09:20:44;;;;;;;;;;;22.70;52.10;;;;;;1518910;76;785;-59
2021/08/30 09:22:46;;;;;;;;;;;22.80;52.10;;;;;;1524509;76;1145;-59
2021/08/30 09:24:50;;;;;;;;;;;22.80;52.00;;;;;;1528330;76;1933;-60
2021/08/30 09:26:52;;;;;;;;;;;22.80;52.10;;;;;;1524029;76;1701;-57
2021/08/30 09:28:55;;;;;;;;;;;22.70;52.10;;;;;;1534420;76;675;-61
2021/08/30 09:30:58;;;;;;;;;;;22.80;52.10;;;;;;1533852;76;702;-59
2021/08/30 09:33:00;;;;;;;;;;;22.80;52.20;;;;;;1532600;76;1128;-58
2021/08/30 09:35:02;;;;;;;;;;;22.80;52.20;;;;;;1533346;76;765;-58
2021/08/30 09:37:05;;;;;;;;;;;22.90;52.30;;;;;;1531574;76;854;-59
2021/08/30 09:39:06;;;;;;;;;;;22.90;52.20;;;;;;1533295;76;643;-59
2021/08/30 09:41:09;;;;;;;;;;;22.80;52.10;;;;;;1532471;76;785;-59
2021/08/30 09:43:12;;;;;;;;;;;22.80;52.20;;;;;;1528004;76;1122;-59
2021/08/30 09:45:15;;;;;;;;;;;22.90;52.30;;;;;;1531615;76;1959;-58
2021/08/30 09:47:20;;;;;;;;;;;22.80;52.10;;;;;;1539196;76;794;-60
2021/08/30 09:49:25;;;;;;;;;;;22.80;52.10;;;;;;1531574;76;777;-60
2021/08/30 09:51:28;;;;;;;;;;;22.90;52.30;;;;;;1502764;77;1282;-58
2021/08/30 09:53:30;;;;;;;;;;;22.80;52.10;;;;;;1526253;76;1055;-59
2021/08/30 09:55:33;;;;;;;;;;;22.90;52.30;;;;;;1533711;76;750;-55
2021/08/30 09:57:34;;;;;;;;;;;22.80;52.10;;;;;;1523112;76;741;-60
2021/08/30 09:59:38;;;;;;;;;;;22.80;52.10;;;;;;1531288;76;783;-59
2021/08/30 10:01:41;;;;;;;;;;;22.90;52.20;;;;;;1528327;76;813;-62
2021/08/30 10:03:43;;;;;;;;;;;22.90;52.10;;;;;;1531142;76;1170;-60
2021/08/30 10:05:44;;;;;;;;;;;22.90;51.90;;;;;;1531126;76;1941;-60
2021/08/30 10:07:46;;;;;;;;;;;22.90;51.80;;;;;;1526156;76;779;-63
2021/08/30 10:09:48;;;;;;;;;;;22.90;51.80;;;;;;1532608;76;873;-59
2021/08/30 10:11:52;;;;;;;;;;;22.80;51.50;;;;;;1524117;76;774;-59
2021/08/30 10:13:54;;;;;;;;;;;22.80;51.50;;;;;;1531193;76;1133;-58
2021/08/30 10:15:56;;;;;;;;;;;22.80;51.40;;;;;;1533912;76;709;-58
2021/08/30 10:17:58;;;;;;;;;;;22.80;51.40;;;;;;1527571;76;774;-58
2021/08/30 10:20:00;;;;;;;;;;;22.80;51.30;;;;;;1534246;76;727;-57
2021/08/30 10:22:03;;;;;;;;;;;22.80;51.30;;;;;;1533434;76;740;-56
2021/08/30 10:24:12;;;;;;;;;;;22.70;51.30;;;;;;1506208;77;1147;-61
2021/08/30 10:26:14;;;;;;;;;;;22.70;51.30;;;;;;1534757;76;1933;-57
2021/08/30 10:28:16;;;;;;;;;;;22.70;51.30;;;;;;1532919;76;736;-60
2021/08/30 10:30:18;;;;;;;;;;;22.70;51.40;;;;;;1532818;76;927;-61
2021/08/30 10:32:21;;;;;;;;;;;22.70;51.40;;;;;;1532019;76;778;-60
2021/08/30 10:34:24;;;;;;;;;;;22.70;51.40;;;;;;1533428;76;1128;-61
2021/08/30 10:36:27;;;;;;;;;;;22.70;51.40;;;;;;1534835;76;756;-59
2021/08/30 10:38:29;;;;;;;;;;;22.70;51.50;;;;;;1527086;76;822;-59
2021/08/30 10:40:35;;;;;;;;;;;22.70;51.30;;;;;;1538629;76;767;-59
2021/08/30 10:42:37;;;;;;;;;;;22.80;51.40;;;;;;1528291;76;849;-60
2021/08/30 10:44:54;;;;;;;;;;;22.80;51.40;;;;;;1530680;76;1229;-59
2021/08/30 10:47:00;;;;;;;;;;;22.80;51.40;;;;;;1527594;76;1933;-60
2021/08/30 10:49:02;;;;;;;;;;;22.70;51.30;;;;;;1530724;76;1795;-57
2021/08/30 10:51:16;;;;;;;;;;;22.70;51.30;;;;;;1533368;76;2038;-60
2021/08/30 10:53:23;;;;;;;;;;;22.70;51.30;;;;;;1533596;76;1210;-58
2021/08/30 10:55:24;;;;;;;;;;;22.70;51.30;;;;;;1527845;76;781;-59
2021/08/30 10:57:33;;;;;;;;;;;22.70;51.30;;;;;;1519452;76;720;-58
2021/08/30 10:59:35;;;;;;;;;;;22.70;51.20;;;;;;1519858;76;778;-59
2021/08/30 11:01:41;;;;;;;;;;;22.70;51.20;;;;;;1530202;76;792;-58
2021/08/30 11:03:41;;;;;;;;;;;22.70;51.30;;;;;;1537592;76;1140;-60
2021/08/30 11:05:45;;;;;;;;;;;22.80;51.20;;;;;;1534595;76;1922;-58
2021/08/30 11:07:48;;;;;;;;;;;22.70;51.30;;;;;;1529055;76;1662;-61
2021/08/30 11:09:49;;;;;;;;;;;22.70;51.30;;;;;;1522479;76;1847;-59
2021/08/30 11:11:51;;;;;;;;;;;22.80;51.30;;;;;;1523883;76;711;-59
2021/08/30 11:14:00;;;;;;;;;;;22.80;51.30;;;;;;1526679;76;1235;-60
2021/08/30 11:16:02;;;;;;;;;;;22.80;51.50;;;;;;1527284;76;714;-59
2021/08/30 11:18:04;;;;;;;;;;;22.90;51.60;;;;;;1535148;76;761;-59
2021/08/30 11:20:06;;;;;;;;;;;22.90;51.90;;;;;;1536490;76;936;-59
2021/08/30 11:22:09;;;;;;;;;;;22.80;51.90;;;;;;1527590;76;757;-60
2021/08/30 11:24:12;;;;;;;;;;;22.80;51.90;;;;;;1535473;76;1101;-59
2021/08/30 11:26:14;;;;;;;;;;;22.90;52.20;;;;;;1531530;76;1937;-59
2021/08/30 11:28:16;;;;;;;;;;;22.80;52.10;;;;;;1533587;76;757;-60
2021/08/30 11:30:19;;;;;;;;;;;22.80;52.20;;;;;;1536054;76;818;-61
2021/08/30 11:32:21;;;;;;;;;;;22.80;52.30;;;;;;1529377;76;805;-59
2021/08/30 11:34:25;;;;;;;;;;;22.80;52.30;;;;;;1535305;76;1057;-59
2021/08/30 11:36:26;;;;;;;;;;;22.80;52.40;;;;;;1532462;76;1842;-61
2021/08/30 11:38:28;;;;;;;;;;;22.80;52.40;;;;;;1533008;76;833;-58
2021/08/30 11:40:30;;;;;;;;;;;22.80;52.50;;;;;;1531484;76;913;-61
2021/08/30 11:42:33;;;;;;;;;;;22.80;52.30;;;;;;1532208;76;756;-59
2021/08/30 11:44:36;;;;;;;;;;;22.80;52.10;;;;;;1535462;76;1082;-60
2021/08/30 11:46:39;;;;;;;;;;;22.80;52.20;;;;;;1531821;76;1929;-58
2021/08/30 11:48:41;;;;;;;;;;;22.80;52.30;;;;;;1527354;76;1902;-59
2021/08/30 11:50:43;;;;;;;;;;;22.80;52.30;;;;;;1533056;76;755;-60
2021/08/30 11:52:45;;;;;;;;;;;22.80;52.30;;;;;;1532913;76;1170;-59
2021/08/30 11:54:58;;;;;;;;;;;22.80;52.30;;;;;;1530069;76;789;-60
2021/08/30 11:57:01;;;;;;;;;;;22.80;52.30;;;;;;1535181;76;841;-61
2021/08/30 11:59:02;;;;;;;;;;;22.80;52.60;;;;;;1529935;76;747;-60
2021/08/30 12:01:04;;;;;;;;;;;22.80;52.70;;;;;;1528073;76;657;-59
2021/08/30 12:03:13;;;;;;;;;;;22.80;52.70;;;;;;1536043;76;1210;-58
2021/08/30 12:05:15;;;;;;;;;;;22.90;53.00;;;;;;1529253;76;831;-58
2021/08/30 12:07:17;;;;;;;;;;;22.80;53.30;;;;;;1535520;76;2105;-58
2021/08/30 12:09:19;;;;;;;;;;;22.80;53.60;;;;;;1525340;76;705;-58
2021/08/30 12:11:21;;;;;;;;;;;22.90;54.00;;;;;;1532666;76;818;-58
2021/08/30 12:15:30;;;;;;;;;;;22.90;54.10;;;;;;1521646;77;866;-60
2021/08/30 12:17:36;;;;;;;;;;;22.90;54.50;;;;;;1528764;76;802;-60